createdAt,value
2023-03-05T00:00:50.699Z,51.20
2023-03-05T00:03:17.475Z,51.60
2023-03-05T00:05:44.253Z,51.50
2023-03-05T00:08:11.018Z,51.00
2023-03-05T00:10:37.785Z,51.20
2023-03-05T00:13:04.623Z,50.40
2023-03-05T00:15:31.472Z,51.50
2023-03-05T00:17:58.167Z,49.80
2023-03-05T00:20:25.012Z,51.50
2023-03-05T00:22:51.788Z,51.00
2023-03-05T00:25:18.594Z,51.00
2023-03-05T00:27:45.376Z,50.20
2023-03-05T00:30:12.834Z,51.00
2023-03-05T00:32:39.569Z,50.10
2023-03-05T00:35:07.278Z,51.20
2023-03-05T00:37:34.114Z,49.90
2023-03-05T00:40:00.920Z,51.20
2023-03-05T00:42:28.572Z,51.00
2023-03-05T00:44:55.886Z,50.20
2023-03-05T00:47:22.686Z,49.80
2023-03-05T00:49:49.398Z,51.20
2023-03-05T00:52:16.251Z,50.10
2023-03-05T00:54:42.969Z,51.40
2023-03-05T00:57:09.689Z,50.00
2023-03-05T00:59:36.947Z,52.10
2023-03-05T01:02:03.800Z,51.40
2023-03-05T01:04:30.811Z,52.00
2023-03-05T01:06:58.303Z,50.70
2023-03-05T01:09:25.510Z,50.30
2023-03-05T01:11:53.033Z,50.30
2023-03-05T01:14:20.934Z,51.40
2023-03-05T01:16:48.163Z,50.10
2023-03-05T01:19:16.234Z,51.20
2023-03-05T01:21:43.035Z,49.90
2023-03-05T01:24:09.899Z,50.50
2023-03-05T01:26:36.775Z,51.50
2023-03-05T01:29:04.515Z,51.90
2023-03-05T01:31:31.374Z,51.70
2023-03-05T01:34:00.082Z,50.60
2023-03-05T01:36:28.155Z,50.80
2023-03-05T01:38:55.078Z,51.60
2023-03-05T01:41:22.075Z,51.70
2023-03-05T01:43:49.904Z,51.10
2023-03-05T01:46:23.946Z,51.70
2023-03-05T01:49:02.599Z,50.00
2023-03-05T01:51:35.163Z,50.00
2023-03-05T01:54:03.648Z,50.30
2023-03-05T01:56:31.051Z,50.00
2023-03-05T01:59:03.403Z,51.90
2023-03-05T02:01:39.662Z,51.70
2023-03-05T02:04:09.504Z,50.90
2023-03-05T02:06:37.141Z,51.20
2023-03-05T02:09:04.405Z,51.30
2023-03-05T02:11:31.276Z,50.20
2023-03-05T02:13:58.552Z,51.60
2023-03-05T02:16:25.382Z,51.40
2023-03-05T02:18:52.208Z,51.40
2023-03-05T02:21:37.019Z,51.30
2023-03-05T02:24:04.058Z,51.60
2023-03-05T02:26:30.847Z,50.30
2023-03-05T02:29:00.877Z,50.40
2023-03-05T02:31:27.915Z,51.60
2023-03-05T02:33:56.042Z,51.00
2023-03-05T02:36:24.605Z,51.60
2023-03-05T02:38:53.237Z,50.30
2023-03-05T02:41:20.397Z,50.40
2023-03-05T02:43:47.608Z,52.00
2023-03-05T02:46:14.596Z,52.00
2023-03-05T02:48:41.446Z,52.10
2023-03-05T02:51:11.792Z,51.70
2023-03-05T02:53:38.635Z,51.90
2023-03-05T02:56:05.737Z,51.80
2023-03-05T02:58:34.825Z,50.40
2023-03-05T03:01:01.643Z,51.80
2023-03-05T03:03:28.919Z,50.50
2023-03-05T03:05:55.684Z,51.50
2023-03-05T03:08:22.443Z,51.70
2023-03-05T03:10:49.190Z,50.40
2023-03-05T03:13:15.920Z,51.60
2023-03-05T03:15:42.706Z,51.10
2023-03-05T03:18:09.609Z,52.10
2023-03-05T03:20:39.024Z,52.70
2023-03-05T03:23:06.703Z,51.40
2023-03-05T03:25:33.832Z,51.30
2023-03-05T03:28:00.634Z,50.50
2023-03-05T03:30:27.428Z,51.50
2023-03-05T03:32:54.109Z,50.50
2023-03-05T03:35:20.924Z,53.10
2023-03-05T03:37:47.984Z,52.20
2023-03-05T03:40:14.837Z,50.50
2023-03-05T03:42:41.548Z,50.60
2023-03-05T03:45:09.238Z,51.50
2023-03-05T03:47:35.912Z,50.50
2023-03-05T03:50:02.998Z,51.30
2023-03-05T03:52:29.791Z,50.50
2023-03-05T03:55:01.350Z,52.10
2023-03-05T03:57:30.052Z,50.50
2023-03-05T03:59:57.038Z,51.40
2023-03-05T04:02:24.036Z,52.20
2023-03-05T04:04:51.505Z,50.60
2023-03-05T04:07:18.893Z,50.50
2023-03-05T04:09:45.757Z,51.30
2023-03-05T04:12:17.758Z,51.90
2023-03-05T04:14:46.375Z,51.90
2023-03-05T04:17:13.738Z,50.30
2023-03-05T04:19:41.780Z,50.40
2023-03-05T04:22:13.271Z,51.90
2023-03-05T04:24:40.180Z,51.60
2023-03-05T04:27:06.982Z,51.00
2023-03-05T04:29:34.273Z,51.80
2023-03-05T04:32:01.211Z,51.70
2023-03-05T04:34:27.955Z,51.40
2023-03-05T04:36:54.953Z,51.70
2023-03-05T04:39:21.771Z,52.30
2023-03-05T04:41:48.829Z,51.30
2023-03-05T04:44:17.593Z,50.60
2023-03-05T04:46:44.633Z,50.70
2023-03-05T04:49:11.424Z,50.50
2023-03-05T04:51:38.235Z,52.00
2023-03-05T04:54:05.060Z,51.90
2023-03-05T04:56:31.769Z,50.50
2023-03-05T04:58:59.118Z,50.70
2023-03-05T05:01:26.160Z,50.50
2023-03-05T05:03:52.911Z,51.70
2023-03-05T05:06:19.650Z,52.60
2023-03-05T05:08:46.512Z,51.80
2023-03-05T05:11:14.796Z,50.70
2023-03-05T05:13:41.544Z,50.60
2023-03-05T05:16:08.486Z,50.50
2023-03-05T05:18:35.708Z,50.60
2023-03-05T05:21:02.438Z,52.00
2023-03-05T05:23:29.203Z,51.70
2023-03-05T05:26:00.596Z,50.60
2023-03-05T05:28:28.024Z,51.10
2023-03-05T05:30:55.132Z,50.30
2023-03-05T05:33:22.781Z,50.50
2023-03-05T05:35:50.421Z,51.10
2023-03-05T05:38:17.662Z,52.00
2023-03-05T05:40:44.363Z,50.40
2023-03-05T05:43:11.031Z,51.00
2023-03-05T05:45:38.712Z,51.70
2023-03-05T05:48:06.574Z,52.00
2023-03-05T05:50:33.474Z,50.40
2023-03-05T05:53:00.237Z,51.30
2023-03-05T05:55:27.060Z,51.50
2023-03-05T05:57:53.909Z,52.60
2023-03-05T06:00:21.034Z,50.60
2023-03-05T06:02:47.838Z,50.60
2023-03-05T06:05:15.186Z,50.60
2023-03-05T06:07:42.936Z,50.50
2023-03-05T06:10:10.646Z,50.50
2023-03-05T06:12:37.495Z,50.50
2023-03-05T06:15:04.750Z,51.60
2023-03-05T06:17:31.580Z,50.60
2023-03-05T06:19:58.986Z,51.50
2023-03-05T06:22:25.992Z,51.90
2023-03-05T06:24:52.844Z,50.80
2023-03-05T06:27:19.648Z,50.70
2023-03-05T06:29:46.610Z,50.60
2023-03-05T06:32:13.348Z,51.70
2023-03-05T06:34:40.208Z,51.50
2023-03-05T06:37:07.427Z,51.60
2023-03-05T06:39:34.368Z,51.80
2023-03-05T06:42:01.181Z,52.00
2023-03-05T06:44:28.111Z,51.20
2023-03-05T06:46:54.963Z,51.20
2023-03-05T06:49:21.733Z,50.80
2023-03-05T06:51:48.529Z,51.70
2023-03-05T06:54:16.922Z,51.00
2023-03-05T06:56:46.688Z,51.20
2023-03-05T06:59:16.089Z,51.40
2023-03-05T07:01:44.274Z,51.10
2023-03-05T07:04:12.625Z,51.90
2023-03-05T07:06:41.705Z,50.40
2023-03-05T07:09:10.953Z,51.70
2023-03-05T07:11:37.690Z,51.60
2023-03-05T07:14:04.691Z,50.90
2023-03-05T07:16:33.462Z,50.70
2023-03-05T07:19:02.783Z,50.40
2023-03-05T07:21:32.016Z,52.00
2023-03-05T07:24:00.942Z,51.30
2023-03-05T07:26:28.347Z,50.70
2023-03-05T07:28:55.223Z,50.90
2023-03-05T07:31:30.815Z,52.40
2023-03-05T07:33:59.509Z,51.60
2023-03-05T07:36:27.223Z,51.60
2023-03-05T07:38:54.178Z,50.60
2023-03-05T07:41:23.363Z,51.70
2023-03-05T07:43:52.846Z,52.20
2023-03-05T07:46:22.076Z,51.90
2023-03-05T07:48:48.973Z,50.80
2023-03-05T07:51:18.295Z,51.70
2023-03-05T07:53:46.262Z,51.90
2023-03-05T07:56:13.764Z,51.60
2023-03-05T07:58:40.668Z,51.90
2023-03-05T08:01:16.449Z,50.80
2023-03-05T08:03:44.156Z,51.80
2023-03-05T08:06:12.156Z,50.70
2023-03-05T08:08:40.102Z,52.60
2023-03-05T08:11:10.295Z,50.80
2023-03-05T08:13:38.071Z,52.40
2023-03-05T08:16:12.661Z,52.10
2023-03-05T08:18:39.650Z,51.40
2023-03-05T08:21:14.456Z,52.40
2023-03-05T08:23:41.209Z,52.20
2023-03-05T08:26:17.565Z,52.80
2023-03-05T08:28:44.485Z,51.20
2023-03-05T08:31:12.864Z,52.80
2023-03-05T08:33:40.658Z,52.10
2023-03-05T08:36:08.631Z,52.00
2023-03-05T08:38:36.500Z,51.00
2023-03-05T08:41:04.034Z,51.10
2023-03-05T08:43:31.279Z,51.10
2023-03-05T08:45:59.295Z,52.70
2023-03-05T08:48:26.229Z,52.30
2023-03-05T08:50:53.221Z,51.10
2023-03-05T08:53:20.107Z,53.30
2023-03-05T08:55:57.767Z,51.70
2023-03-05T08:58:25.305Z,50.90
2023-03-05T09:00:52.282Z,52.00
2023-03-05T09:03:19.661Z,53.10
2023-03-05T09:05:46.530Z,52.30
2023-03-05T09:08:14.597Z,52.00
2023-03-05T09:10:45.066Z,52.80
2023-03-05T09:13:12.140Z,51.40
2023-03-05T09:15:39.391Z,52.60
2023-03-05T09:18:08.900Z,51.80
2023-03-05T09:20:36.741Z,52.10
2023-03-05T09:23:03.852Z,51.90
2023-03-05T09:25:30.633Z,52.20
2023-03-05T09:27:57.428Z,52.70
2023-03-05T09:30:24.428Z,53.00
2023-03-05T09:32:51.360Z,50.90
2023-03-05T09:35:18.321Z,52.60
2023-03-05T09:37:45.130Z,52.80
2023-03-05T09:40:16.439Z,51.40
2023-03-05T09:43:03.040Z,50.50
2023-03-05T09:46:05.906Z,50.50
2023-03-05T09:48:49.566Z,50.50
2023-03-05T09:51:26.006Z,50.60
2023-03-05T09:54:05.228Z,52.50
2023-03-05T09:56:40.791Z,51.30
2023-03-05T09:59:16.237Z,51.00
2023-03-05T10:01:44.937Z,50.50
2023-03-05T10:04:19.053Z,51.30
2023-03-05T10:06:53.371Z,51.20
2023-03-05T10:09:38.068Z,53.00
2023-03-05T10:12:18.228Z,51.30
2023-03-05T10:14:45.075Z,53.10
2023-03-05T10:17:26.800Z,52.80
2023-03-05T10:20:01.580Z,52.10
2023-03-05T10:22:39.409Z,51.40
2023-03-05T10:25:44.403Z,51.40
2023-03-05T10:28:43.275Z,51.40
2023-03-05T10:31:16.213Z,51.40
2023-03-05T10:34:12.096Z,51.30
2023-03-05T10:36:48.171Z,51.30
2023-03-05T10:39:42.285Z,51.90
2023-03-05T10:42:32.814Z,51.30
2023-03-05T10:45:05.909Z,51.20
2023-03-05T10:47:55.732Z,51.20
2023-03-05T10:50:44.655Z,51.70
2023-03-05T10:53:18.517Z,51.20
2023-03-05T10:55:45.270Z,51.10
2023-03-05T10:58:14.398Z,52.20
2023-03-05T11:01:23.729Z,52.70
2023-03-05T11:04:00.960Z,51.00
2023-03-05T11:06:36.619Z,51.00
2023-03-05T11:09:29.233Z,52.40
2023-03-05T11:12:11.182Z,50.90
2023-03-05T11:14:41.458Z,50.90
2023-03-05T11:17:33.430Z,52.00
2023-03-05T11:20:27.570Z,50.90
2023-03-05T11:23:17.957Z,50.90
2023-03-05T11:26:12.889Z,51.00
2023-03-05T11:28:54.965Z,50.80
2023-03-05T11:31:25.351Z,50.80
2023-03-05T11:33:58.313Z,51.40
2023-03-05T11:36:36.446Z,51.30
2023-03-05T11:39:06.124Z,51.70
2023-03-05T11:41:39.024Z,52.50
2023-03-05T11:44:13.803Z,50.70
2023-03-05T11:46:47.932Z,51.90
2023-03-05T11:49:19.935Z,51.90
2023-03-05T11:52:08.440Z,51.80
2023-03-05T11:54:58.245Z,50.60
2023-03-05T11:57:26.912Z,51.30
2023-03-05T11:59:56.214Z,51.00
2023-03-05T12:02:26.447Z,52.10
2023-03-05T12:04:53.558Z,50.70
2023-03-05T12:07:29.682Z,51.20
2023-03-05T12:09:56.652Z,51.20
2023-03-05T12:13:03.959Z,52.30
2023-03-05T12:15:34.856Z,50.50
2023-03-05T12:18:13.652Z,51.90
2023-03-05T12:20:58.019Z,50.50
2023-03-05T12:23:27.888Z,50.50
2023-03-05T12:25:59.297Z,50.40
2023-03-05T12:28:31.781Z,51.60
2023-03-05T12:31:05.633Z,50.50
2023-03-05T12:33:43.756Z,50.50
2023-03-05T12:36:22.449Z,50.50
2023-03-05T12:38:54.568Z,52.00
2023-03-05T12:41:25.356Z,51.90
2023-03-05T12:44:05.924Z,51.20
2023-03-05T12:46:37.842Z,51.00
2023-03-05T12:49:27.868Z,50.50
2023-03-05T12:51:56.507Z,50.90
2023-03-05T12:54:35.583Z,51.20
2023-03-05T12:57:13.996Z,50.70
2023-03-05T12:59:54.812Z,50.40
2023-03-05T13:02:39.044Z,50.30
2023-03-05T13:05:21.695Z,50.30
2023-03-05T13:07:50.728Z,50.20
2023-03-05T13:10:29.735Z,51.60
2023-03-05T13:12:58.514Z,50.70
2023-03-05T13:15:26.550Z,51.90
2023-03-05T13:18:07.331Z,50.90
2023-03-05T13:20:39.447Z,51.80
2023-03-05T13:23:26.795Z,50.30
2023-03-05T13:26:18.429Z,50.50
2023-03-05T13:29:12.218Z,50.10
2023-03-05T13:31:51.882Z,50.10
2023-03-05T13:34:22.091Z,50.00
2023-03-05T13:37:19.742Z,50.10
2023-03-05T13:39:57.516Z,50.10
2023-03-05T13:42:25.973Z,51.10
2023-03-05T13:45:02.093Z,51.40
2023-03-05T13:47:31.988Z,49.70
2023-03-05T13:50:02.095Z,49.70
2023-03-05T13:52:32.336Z,50.50
2023-03-05T13:55:00.229Z,51.20
2023-03-05T13:57:42.450Z,50.90
2023-03-05T14:00:29.005Z,50.80
2023-03-05T14:03:00.157Z,49.70
2023-03-05T14:05:28.036Z,50.60
2023-03-05T14:07:56.603Z,50.90
2023-03-05T14:10:39.293Z,51.10
2023-03-05T14:13:13.592Z,50.10
2023-03-05T14:15:40.766Z,49.30
2023-03-05T14:18:13.348Z,50.90
2023-03-05T14:20:41.653Z,49.60
2023-03-05T14:23:52.723Z,49.20
2023-03-05T14:26:29.379Z,49.20
2023-03-05T14:29:11.707Z,49.20
2023-03-05T14:31:48.132Z,51.00
2023-03-05T14:34:22.421Z,51.60
2023-03-05T14:36:51.505Z,51.00
2023-03-05T14:39:37.345Z,50.80
2023-03-05T14:42:26.705Z,49.00
2023-03-05T14:44:55.685Z,49.00
2023-03-05T14:47:26.820Z,50.30
2023-03-05T14:49:53.653Z,50.40
2023-03-05T14:52:23.214Z,50.30
2023-03-05T14:54:50.477Z,50.80
2023-03-05T14:57:21.096Z,50.20
2023-03-05T14:59:47.933Z,49.80
2023-03-05T15:02:23.038Z,50.80
2023-03-05T15:04:50.022Z,49.60
2023-03-05T15:07:19.380Z,50.50
2023-03-05T15:09:46.148Z,50.50
2023-03-05T15:12:15.123Z,50.50
2023-03-05T15:14:43.375Z,50.00
2023-03-05T15:17:17.309Z,50.20
2023-03-05T15:19:44.439Z,50.50
2023-03-05T15:22:14.403Z,49.70
2023-03-05T15:24:41.924Z,50.10
2023-03-05T15:27:08.737Z,49.60
2023-03-05T15:29:35.649Z,49.40
2023-03-05T15:32:03.661Z,49.70
2023-03-05T15:34:30.893Z,50.00
2023-03-05T15:36:57.688Z,50.60
2023-03-05T15:39:27.486Z,49.80
2023-03-05T15:41:54.555Z,49.20
2023-03-05T15:44:21.902Z,49.40
2023-03-05T15:46:48.748Z,50.80
2023-03-05T15:49:15.920Z,50.20
2023-03-05T15:51:42.877Z,48.80
2023-03-05T15:54:09.725Z,50.10
2023-03-05T15:56:36.742Z,50.70
2023-03-05T15:59:03.892Z,49.60
2023-03-05T16:01:30.782Z,50.30
2023-03-05T16:03:57.597Z,49.60
2023-03-05T16:06:25.603Z,50.50
2023-03-05T16:08:58.310Z,49.10
2023-03-05T16:11:26.562Z,50.00
2023-03-05T16:13:53.824Z,48.70
2023-03-05T16:16:23.558Z,49.00
2023-03-05T16:18:50.804Z,49.80
2023-03-05T16:21:17.719Z,49.20
2023-03-05T16:23:44.852Z,50.80
2023-03-05T16:26:12.017Z,49.90
2023-03-05T16:28:39.016Z,48.50
2023-03-05T16:31:05.793Z,49.30
2023-03-05T16:33:33.124Z,50.60
2023-03-05T16:36:21.053Z,49.70
2023-03-05T16:38:50.997Z,48.50
2023-03-05T16:41:21.954Z,48.50
2023-03-05T16:43:50.842Z,48.50
2023-03-05T16:46:17.617Z,49.80
2023-03-05T16:48:44.509Z,50.30
2023-03-05T16:51:12.623Z,50.30
2023-03-05T16:53:39.818Z,49.50
2023-03-05T16:56:08.681Z,50.30
2023-03-05T16:58:37.184Z,48.30
2023-03-05T17:01:12.606Z,50.00
2023-03-05T17:03:41.414Z,48.20
2023-03-05T17:06:16.364Z,49.30
2023-03-05T17:08:44.468Z,48.20
2023-03-05T17:11:12.607Z,49.80
2023-03-05T17:13:40.059Z,49.30
2023-03-05T17:16:08.604Z,49.80
2023-03-05T17:18:35.601Z,48.40
2023-03-05T17:21:03.987Z,50.10
2023-03-05T17:23:31.341Z,49.40
2023-03-05T17:25:58.219Z,49.80
2023-03-05T17:28:26.550Z,50.10
2023-03-05T17:30:53.360Z,49.80
2023-03-05T17:33:20.205Z,50.30
2023-03-05T17:35:47.197Z,49.50
2023-03-05T17:38:14.681Z,49.50
2023-03-05T17:40:41.637Z,48.90
2023-03-05T17:43:08.486Z,48.60
2023-03-05T17:45:35.744Z,49.50
2023-03-05T17:48:03.442Z,50.20
2023-03-05T17:50:30.397Z,49.20
2023-03-05T17:52:57.439Z,49.20
2023-03-05T17:55:25.584Z,49.80
2023-03-05T17:57:53.153Z,50.00
2023-03-05T18:00:25.324Z,49.00
2023-03-05T18:02:52.965Z,48.00
2023-03-05T18:05:23.129Z,49.00
2023-03-05T18:07:50.501Z,48.90
2023-03-05T18:10:19.318Z,49.60
2023-03-05T18:12:46.561Z,49.40
2023-03-05T18:15:17.104Z,49.90
2023-03-05T18:17:44.266Z,48.80
2023-03-05T18:20:24.937Z,49.50
2023-03-05T18:22:52.146Z,47.90
2023-03-05T18:25:19.036Z,49.20
2023-03-05T18:27:45.959Z,48.00
2023-03-05T18:30:13.109Z,49.30
2023-03-05T18:32:39.811Z,48.70
2023-03-05T18:35:06.995Z,50.10
2023-03-05T18:37:33.837Z,48.30
2023-03-05T18:40:00.881Z,50.30
2023-03-05T18:42:27.592Z,49.30
2023-03-05T18:44:56.249Z,50.00
2023-03-05T18:47:22.985Z,48.90
2023-03-05T18:49:49.744Z,48.40
2023-03-05T18:52:16.577Z,48.90
2023-03-05T18:54:43.496Z,50.10
2023-03-05T18:57:10.226Z,48.40
2023-03-05T18:59:37.017Z,49.50
2023-03-05T19:02:03.824Z,48.60
2023-03-05T19:04:30.860Z,49.30
2023-03-05T19:06:57.614Z,48.90
2023-03-05T19:09:41.121Z,49.70
2023-03-05T19:12:07.882Z,48.50
2023-03-05T19:14:34.645Z,48.30
2023-03-05T19:17:01.410Z,49.10
2023-03-05T19:19:28.142Z,49.40
2023-03-05T19:21:59.474Z,49.10
2023-03-05T19:24:28.553Z,49.40
2023-03-05T19:26:58.106Z,48.00
2023-03-05T19:29:26.805Z,49.10
2023-03-05T19:31:54.288Z,48.60
2023-03-05T19:34:21.374Z,49.60
2023-03-05T19:36:48.396Z,49.30
2023-03-05T19:39:15.571Z,49.10
2023-03-05T19:41:42.604Z,48.60
2023-03-05T19:44:09.365Z,48.30
2023-03-05T19:46:36.261Z,48.80
2023-03-05T19:49:03.669Z,49.70
2023-03-05T19:51:30.465Z,48.80
2023-03-05T19:53:57.245Z,49.80
2023-03-05T19:56:24.097Z,49.30
2023-03-05T19:58:50.956Z,48.20
2023-03-05T20:01:27.563Z,49.70
2023-03-05T20:03:57.042Z,49.40
2023-03-05T20:06:25.636Z,48.20
2023-03-05T20:08:53.199Z,49.20
2023-03-05T20:11:22.129Z,47.80
2023-03-05T20:13:49.367Z,48.00
2023-03-05T20:16:23.310Z,49.00
2023-03-05T20:18:52.735Z,49.40
2023-03-05T20:21:23.011Z,49.30
2023-03-05T20:23:54.480Z,48.50
2023-03-05T20:26:22.539Z,49.30
2023-03-05T20:28:50.120Z,48.90
2023-03-05T20:31:22.308Z,48.00
2023-03-05T20:33:49.919Z,48.80
2023-03-05T20:36:17.044Z,49.10
2023-03-05T20:38:45.671Z,49.30
2023-03-05T20:41:16.346Z,49.70
2023-03-05T20:43:46.071Z,48.10
2023-03-05T20:46:29.081Z,47.80
2023-03-05T20:48:59.000Z,47.40
2023-03-05T20:51:29.380Z,48.60
2023-03-05T20:54:02.216Z,48.70
2023-03-05T20:56:32.202Z,47.80
2023-03-05T20:59:04.483Z,48.70
2023-03-05T21:01:34.009Z,48.80
2023-03-05T21:04:01.399Z,48.90
2023-03-05T21:06:30.374Z,48.90
2023-03-05T21:08:57.836Z,48.20
2023-03-05T21:11:24.744Z,47.70
2023-03-05T21:13:51.546Z,48.30
2023-03-05T21:16:21.021Z,48.40
2023-03-05T21:18:48.370Z,48.90
2023-03-05T21:21:15.196Z,48.90
2023-03-05T21:23:42.041Z,48.50
2023-03-05T21:26:08.950Z,48.40
2023-03-05T21:28:36.081Z,49.10
2023-03-05T21:31:14.577Z,49.40
2023-03-05T21:33:42.223Z,49.00
2023-03-05T21:36:09.305Z,48.50
2023-03-05T21:38:36.282Z,49.20
2023-03-05T21:41:03.892Z,48.90
2023-03-05T21:43:31.456Z,48.80
2023-03-05T21:46:00.650Z,48.20
2023-03-05T21:48:27.617Z,48.30
2023-03-05T21:50:55.176Z,48.20
2023-03-05T21:53:22.033Z,48.70
2023-03-05T21:56:17.785Z,47.80
2023-03-05T21:58:45.736Z,48.10
2023-03-05T22:01:13.334Z,49.20
2023-03-05T22:03:40.165Z,48.80
2023-03-05T22:06:15.132Z,49.30
2023-03-05T22:08:42.107Z,47.50
2023-03-05T22:11:14.726Z,48.80
2023-03-05T22:13:42.029Z,48.60
2023-03-05T22:16:09.415Z,48.70
2023-03-05T22:18:37.074Z,48.60
2023-03-05T22:21:04.701Z,48.90
2023-03-05T22:23:34.374Z,47.70
2023-03-05T22:26:07.152Z,48.90
2023-03-05T22:28:35.112Z,48.00
2023-03-05T22:31:02.755Z,48.60
2023-03-05T22:33:30.647Z,48.00
2023-03-05T22:35:58.327Z,49.40
2023-03-05T22:38:25.419Z,48.40
2023-03-05T22:40:53.282Z,48.20
2023-03-05T22:43:20.790Z,49.70
2023-03-05T22:45:47.642Z,48.30
2023-03-05T22:48:14.619Z,48.50
2023-03-05T22:50:43.868Z,49.60
2023-03-05T22:53:11.182Z,49.60
2023-03-05T22:55:40.002Z,49.60
2023-03-05T22:58:06.786Z,49.40
2023-03-05T23:00:33.629Z,49.10
2023-03-05T23:03:00.476Z,48.60
2023-03-05T23:05:27.317Z,49.40
2023-03-05T23:07:54.267Z,48.20
2023-03-05T23:10:26.682Z,49.10
2023-03-05T23:12:54.718Z,48.10
2023-03-05T23:15:27.189Z,49.60
2023-03-05T23:17:54.456Z,48.10
2023-03-05T23:20:23.499Z,49.40
2023-03-05T23:22:52.955Z,49.90
2023-03-05T23:25:20.488Z,48.30
2023-03-05T23:27:47.387Z,48.20
2023-03-05T23:30:21.788Z,48.50
2023-03-05T23:33:20.618Z,48.20
2023-03-05T23:35:58.640Z,49.00
2023-03-05T23:38:27.696Z,48.20
2023-03-05T23:40:57.280Z,48.60
2023-03-05T23:43:25.363Z,48.20
2023-03-05T23:45:56.106Z,48.40
2023-03-05T23:48:24.682Z,48.60
2023-03-05T23:50:53.699Z,48.50
2023-03-05T23:53:27.073Z,48.70
2023-03-05T23:55:54.599Z,49.60
2023-03-05T23:58:21.641Z,48.80
